createdAt,value
2017-05-07T14:26:00.964Z,0.70
2017-05-07T14:28:29.279Z,0.72
2017-05-07T14:30:57.543Z,0.68
2017-05-07T14:33:25.821Z,0.64
2017-05-07T14:35:54.124Z,1.06
2017-05-07T14:38:22.392Z,0.78
2017-05-07T14:40:50.703Z,0.82
2017-05-07T14:43:18.982Z,0.72
2017-05-07T14:45:47.247Z,0.76
2017-05-07T14:48:15.520Z,0.82
2017-05-07T14:50:43.796Z,0.58
2017-05-07T14:53:12.076Z,0.90
2017-05-07T14:55:40.379Z,1.04
2017-05-07T14:58:08.675Z,0.74
2017-05-07T15:00:36.952Z,0.50
2017-05-07T15:03:05.271Z,0.68
2017-05-07T15:05:33.539Z,0.50
2017-05-07T15:08:01.808Z,0.50
2017-05-07T15:10:30.108Z,0.54
2017-05-07T15:12:58.440Z,0.74
2017-05-07T15:15:26.712Z,0.50
2017-05-07T15:17:54.987Z,0.64
2017-05-07T15:20:23.251Z,0.88
2017-05-07T15:22:51.519Z,0.62
2017-05-07T15:25:19.828Z,0.60
2017-05-07T15:27:48.144Z,0.60
2017-05-07T15:30:16.412Z,0.98
2017-05-07T15:32:44.679Z,0.82
2017-05-07T15:35:12.984Z,0.50
2017-05-07T15:37:41.252Z,0.54
2017-05-07T15:40:09.550Z,0.50
2017-05-07T15:42:37.864Z,0.50
2017-05-07T15:45:06.129Z,0.50
2017-05-07T15:47:34.395Z,0.50
2017-05-07T15:50:02.711Z,0.60
2017-05-07T15:52:30.983Z,0.56
2017-05-07T15:54:59.255Z,0.60
2017-05-07T15:57:27.594Z,0.58
2017-05-07T15:59:55.888Z,0.50
2017-05-07T16:02:24.163Z,0.50
2017-05-07T16:04:52.554Z,0.46
2017-05-07T16:07:20.815Z,0.60
2017-05-07T16:09:49.104Z,0.64
2017-05-07T16:12:17.428Z,0.48
2017-05-07T16:14:45.705Z,0.44
2017-05-07T16:23:36.060Z,0.60
2017-05-07T16:26:05.079Z,0.50
2017-05-07T16:28:48.258Z,0.62
2017-05-07T16:31:18.071Z,0.50
2017-05-07T16:33:47.243Z,0.60
2017-05-07T16:36:15.567Z,0.50
2017-05-07T16:38:43.889Z,0.40
2017-05-07T16:41:12.907Z,0.60
2017-05-07T16:43:41.193Z,0.50
2017-05-07T16:46:12.475Z,0.64
2017-05-07T16:48:40.743Z,0.50
2017-05-07T16:51:09.059Z,0.54
2017-05-07T16:53:37.331Z,0.62
2017-05-07T16:56:06.371Z,0.58
2017-05-07T16:58:34.699Z,0.76
2017-05-07T17:01:03.727Z,0.40
2017-05-07T17:03:47.828Z,0.54
2017-05-07T17:06:22.536Z,0.50
2017-05-07T17:08:50.861Z,0.54
2017-05-07T17:11:19.179Z,0.50
2017-05-07T17:13:47.536Z,0.50
2017-05-07T17:16:15.919Z,0.50
2017-05-07T17:18:44.296Z,0.50
2017-05-07T17:21:12.570Z,0.60
2017-05-07T17:23:40.846Z,0.70
2017-05-07T17:26:09.160Z,0.60
2017-05-07T17:28:37.432Z,0.44
2017-05-07T17:31:05.705Z,0.70
2017-05-07T17:33:34.032Z,0.66
2017-05-07T17:36:02.304Z,0.60
2017-05-07T17:38:30.574Z,0.62
2017-05-07T17:40:58.917Z,0.50
2017-05-07T17:43:27.197Z,0.60
2017-05-07T17:45:55.481Z,0.40
2017-05-07T17:48:23.852Z,0.96
2017-05-07T17:50:52.119Z,0.54
2017-05-07T17:53:20.396Z,1.00
2017-05-07T17:55:48.715Z,0.70
2017-05-07T17:58:16.983Z,0.80
2017-05-07T18:00:45.256Z,0.62
2017-05-07T18:03:13.567Z,0.80
2017-05-07T18:05:41.839Z,1.18
2017-05-07T18:08:10.184Z,0.80
2017-05-07T18:10:38.461Z,0.90
2017-05-07T18:13:06.743Z,1.00
2017-05-07T18:15:35.051Z,0.70
2017-05-07T18:18:03.355Z,0.90
2017-05-07T18:20:31.657Z,0.90
2017-05-07T18:22:59.976Z,1.24
2017-05-07T18:25:28.303Z,1.02
2017-05-07T18:27:56.573Z,0.66
2017-05-07T18:30:24.888Z,0.94
2017-05-07T18:32:53.208Z,0.90
2017-05-07T18:35:21.476Z,0.98
2017-05-07T18:37:49.747Z,0.94
2017-05-07T18:40:18.064Z,1.10
2017-05-07T18:42:46.336Z,1.02
2017-05-07T18:45:14.630Z,1.50
2017-05-07T18:47:42.938Z,1.20
2017-05-07T18:50:11.208Z,1.34
2017-05-07T18:52:39.483Z,1.34
2017-05-07T18:55:07.805Z,1.54
2017-05-07T18:57:36.071Z,1.04
2017-05-07T19:00:04.362Z,1.30
2017-05-07T19:02:32.688Z,1.06
2017-05-07T19:05:00.960Z,0.88
2017-05-07T19:07:29.283Z,1.20
2017-05-07T19:09:57.551Z,1.00
2017-05-07T19:12:25.824Z,1.12
2017-05-07T19:14:54.146Z,0.94
2017-05-07T19:17:22.424Z,0.92
2017-05-07T19:19:50.740Z,0.90
2017-05-07T19:22:19.011Z,0.80
2017-05-07T19:24:47.286Z,1.32
2017-05-07T19:27:15.625Z,1.00
2017-05-07T19:29:43.895Z,1.20
2017-05-07T19:32:12.161Z,0.82
2017-05-07T19:34:40.484Z,0.78
2017-05-07T19:37:08.759Z,1.18
2017-05-07T19:39:37.064Z,1.20
2017-05-07T19:42:05.328Z,1.26
2017-05-07T19:44:33.600Z,1.08
2017-05-07T19:47:01.908Z,1.40
2017-05-07T19:49:30.208Z,0.90
2017-05-07T19:51:58.477Z,0.84
2017-05-07T19:54:27.004Z,1.06
2017-05-07T19:56:55.275Z,1.08
2017-05-07T19:59:23.547Z,1.04
2017-05-07T20:01:51.817Z,0.80
2017-05-07T20:04:20.140Z,0.82
2017-05-07T20:06:48.410Z,0.90
2017-05-07T20:09:16.697Z,0.88
2017-05-07T20:11:45.044Z,0.80
2017-05-07T20:14:13.315Z,0.66
2017-05-07T20:16:41.595Z,1.34
2017-05-07T20:19:09.901Z,0.80
2017-05-07T20:21:38.211Z,0.86
2017-05-07T20:24:06.484Z,0.94
2017-05-07T20:26:34.799Z,0.92
2017-05-07T20:29:03.081Z,0.68
2017-05-07T20:31:31.362Z,0.98
2017-05-07T20:34:00.447Z,1.20
2017-05-07T20:36:28.719Z,1.10
2017-05-07T20:38:56.989Z,0.80
2017-05-07T20:41:25.312Z,0.80
2017-05-07T20:43:53.594Z,1.32
2017-05-07T20:46:21.864Z,0.92
2017-05-07T20:48:50.189Z,0.90
2017-05-07T20:51:18.459Z,0.80
2017-05-07T20:53:46.727Z,0.88
2017-05-07T20:56:15.050Z,1.10
2017-05-07T20:58:43.320Z,0.92
2017-05-07T21:01:11.639Z,0.88
2017-05-07T21:03:39.899Z,0.80
2017-05-07T21:06:08.175Z,0.80
2017-05-07T21:08:36.471Z,0.90
2017-05-07T21:11:04.743Z,0.82
2017-05-07T21:13:33.040Z,0.62
2017-05-07T21:16:01.307Z,0.88
2017-05-07T21:18:29.615Z,1.00
2017-05-07T21:20:57.884Z,0.72
2017-05-07T21:23:26.157Z,0.80
2017-05-07T21:25:54.463Z,1.18
2017-05-07T21:28:22.740Z,0.84
2017-05-07T21:30:51.043Z,0.90
2017-05-07T21:33:19.324Z,0.78
2017-05-07T21:35:47.648Z,0.90
2017-05-07T21:38:15.915Z,0.98
2017-05-07T21:40:44.191Z,0.60
2017-05-07T21:43:12.495Z,0.72
2017-05-07T21:45:40.768Z,0.80
2017-05-07T21:48:09.075Z,0.62
2017-05-07T21:50:37.343Z,1.40
2017-05-07T21:53:05.607Z,1.12
2017-05-07T21:55:33.950Z,0.90
